createdAt,value
2019-05-29T00:00:53.462Z,87.20
2019-05-29T00:03:21.212Z,87.20
2019-05-29T00:05:49.038Z,87.80
2019-05-29T00:08:18.495Z,87.80
2019-05-29T00:10:46.397Z,88.00
2019-05-29T00:13:14.545Z,87.80
2019-05-29T00:15:42.701Z,88.10
2019-05-29T00:18:12.487Z,88.30
2019-05-29T00:20:40.342Z,87.90
2019-05-29T00:23:08.450Z,87.90
2019-05-29T00:25:36.423Z,87.90
2019-05-29T00:28:04.640Z,88.20
2019-05-29T00:30:32.635Z,88.80
2019-05-29T00:33:00.229Z,88.80
2019-05-29T00:35:28.257Z,88.30
2019-05-29T00:37:56.186Z,88.80
2019-05-29T00:40:27.180Z,88.70
2019-05-29T00:42:54.825Z,88.80
2019-05-29T00:45:22.831Z,89.00
2019-05-29T00:47:50.593Z,89.20
2019-05-29T00:50:19.136Z,89.70
2019-05-29T00:52:47.994Z,89.60
2019-05-29T00:55:16.873Z,89.60
2019-05-29T00:57:44.794Z,89.50
2019-05-29T01:00:13.273Z,89.90
2019-05-29T01:02:41.477Z,89.30
2019-05-29T01:05:09.823Z,89.30
2019-05-29T01:07:37.628Z,89.30
2019-05-29T01:10:06.635Z,89.50
2019-05-29T01:12:35.054Z,89.80
2019-05-29T01:15:02.963Z,89.90
2019-05-29T01:17:30.697Z,90.10
2019-05-29T01:19:58.708Z,90.00
2019-05-29T01:22:26.279Z,89.80
2019-05-29T01:24:54.081Z,89.90
2019-05-29T01:27:23.036Z,89.50
2019-05-29T01:29:51.249Z,89.30
2019-05-29T01:32:19.534Z,89.60
2019-05-29T01:34:47.455Z,89.50
2019-05-29T01:37:34.553Z,89.50
2019-05-29T01:40:18.677Z,89.50
2019-05-29T01:42:32.440Z,89.50
2019-05-29T01:45:07.598Z,89.70
2019-05-29T01:47:49.409Z,89.70
2019-05-29T01:50:17.686Z,89.50
2019-05-29T01:52:45.510Z,89.50
2019-05-29T01:55:13.484Z,89.60
2019-05-29T01:57:41.341Z,89.40
2019-05-29T02:00:09.855Z,89.40
2019-05-29T02:02:37.516Z,89.60
2019-05-29T02:05:05.559Z,89.50
2019-05-29T02:07:33.276Z,89.80
2019-05-29T02:10:00.926Z,89.80
2019-05-29T02:12:28.611Z,89.80
2019-05-29T02:14:56.520Z,90.00
2019-05-29T02:17:24.659Z,89.90
2019-05-29T02:19:52.391Z,89.90
2019-05-29T02:22:20.971Z,89.50
2019-05-29T02:24:48.722Z,89.60
2019-05-29T02:27:17.241Z,89.70
2019-05-29T02:29:45.174Z,89.70
2019-05-29T02:32:12.909Z,89.70
2019-05-29T02:34:40.945Z,90.30
2019-05-29T02:37:08.700Z,90.20
2019-05-29T02:39:36.486Z,90.30
2019-05-29T02:42:04.386Z,90.50
2019-05-29T02:44:34.172Z,90.70
2019-05-29T02:47:01.842Z,90.70
2019-05-29T02:49:30.305Z,90.70
2019-05-29T02:51:58.551Z,91.00
2019-05-29T02:54:27.306Z,90.90
2019-05-29T02:56:55.735Z,91.20
2019-05-29T02:59:25.488Z,91.40
2019-05-29T03:01:53.175Z,91.50
2019-05-29T03:04:21.685Z,91.50
2019-05-29T03:06:49.524Z,91.60
2019-05-29T03:09:17.499Z,91.80
2019-05-29T03:11:45.226Z,91.70
2019-05-29T03:14:12.902Z,91.80
2019-05-29T03:16:40.674Z,91.70
2019-05-29T03:19:08.576Z,91.70
2019-05-29T03:21:36.289Z,91.70
2019-05-29T03:24:04.057Z,91.60
2019-05-29T03:26:33.429Z,91.50
2019-05-29T03:29:01.454Z,91.60
2019-05-29T03:31:36.811Z,91.60
2019-05-29T03:34:00.189Z,91.50
2019-05-29T03:36:34.499Z,91.50
2019-05-29T03:38:58.188Z,91.50
2019-05-29T03:41:26.296Z,91.40
2019-05-29T03:43:54.111Z,91.70
2019-05-29T03:46:31.942Z,91.70
2019-05-29T03:48:51.490Z,91.60
2019-05-29T03:51:19.389Z,91.70
2019-05-29T03:53:47.144Z,91.90
2019-05-29T03:56:14.895Z,92.10
2019-05-29T03:58:42.706Z,92.00
2019-05-29T04:01:10.751Z,91.90
2019-05-29T04:03:38.915Z,91.90
2019-05-29T04:06:06.548Z,92.00
2019-05-29T04:08:35.731Z,91.90
2019-05-29T04:11:05.464Z,91.80
2019-05-29T04:13:35.677Z,92.00
2019-05-29T04:16:03.666Z,92.10
2019-05-29T04:18:33.937Z,92.20
2019-05-29T04:21:02.161Z,92.20
2019-05-29T04:23:36.249Z,92.20
2019-05-29T04:26:04.352Z,92.50
2019-05-29T04:28:34.444Z,92.30
2019-05-29T04:31:02.589Z,92.20
2019-05-29T04:33:30.688Z,92.30
2019-05-29T04:35:59.684Z,92.30
2019-05-29T04:38:46.934Z,92.50
2019-05-29T04:41:14.609Z,92.30
2019-05-29T04:43:42.998Z,92.40
2019-05-29T04:46:10.780Z,92.20
2019-05-29T04:48:40.395Z,92.20
2019-05-29T04:51:08.048Z,92.00
2019-05-29T04:53:37.513Z,92.10
2019-05-29T04:56:05.517Z,92.20
2019-05-29T04:58:33.235Z,92.00
2019-05-29T05:01:00.934Z,92.20
2019-05-29T05:03:29.067Z,92.20
2019-05-29T05:05:56.872Z,91.90
2019-05-29T05:08:24.704Z,91.80
2019-05-29T05:10:52.425Z,92.00
2019-05-29T05:13:20.361Z,92.00
2019-05-29T05:15:48.960Z,92.00
2019-05-29T05:18:16.796Z,92.10
2019-05-29T05:20:44.414Z,92.00
2019-05-29T05:23:12.187Z,91.90
2019-05-29T05:25:40.992Z,91.90
2019-05-29T05:28:08.950Z,91.80
2019-05-29T05:30:36.995Z,92.20
2019-05-29T05:33:05.108Z,92.10
2019-05-29T05:35:34.669Z,92.30
2019-05-29T05:38:02.462Z,92.10
2019-05-29T05:40:30.760Z,92.30
2019-05-29T05:42:58.527Z,92.40
2019-05-29T05:45:26.403Z,92.20
2019-05-29T05:47:57.847Z,92.50
2019-05-29T05:50:24.317Z,92.40
2019-05-29T05:52:52.754Z,92.40
2019-05-29T05:55:20.639Z,92.40
2019-05-29T05:57:48.777Z,92.40
2019-05-29T06:00:28.159Z,92.20
2019-05-29T06:02:55.843Z,92.20
2019-05-29T06:05:23.565Z,92.30
2019-05-29T06:07:51.214Z,92.20
2019-05-29T06:10:19.331Z,92.20
2019-05-29T06:12:47.057Z,92.10
2019-05-29T06:15:14.802Z,92.10
2019-05-29T06:18:00.616Z,92.00
2019-05-29T06:20:13.420Z,91.90
2019-05-29T06:22:41.190Z,91.50
2019-05-29T06:25:09.612Z,91.70
2019-05-29T06:27:39.050Z,91.20
2019-05-29T06:30:07.204Z,91.10
2019-05-29T06:32:35.368Z,90.60
2019-05-29T06:35:04.556Z,90.70
2019-05-29T06:37:33.471Z,91.00
2019-05-29T06:40:01.644Z,90.60
2019-05-29T06:42:30.567Z,90.60
2019-05-29T06:44:58.443Z,90.60
2019-05-29T06:47:26.419Z,90.60
2019-05-29T06:49:54.317Z,90.20
2019-05-29T06:52:23.802Z,90.30
2019-05-29T06:54:51.543Z,90.10
2019-05-29T06:57:19.203Z,90.20
2019-05-29T06:59:48.830Z,90.10
2019-05-29T07:02:16.615Z,90.20
2019-05-29T07:04:44.709Z,89.70
2019-05-29T07:07:12.582Z,89.30
2019-05-29T07:09:41.070Z,89.60
2019-05-29T07:12:10.086Z,89.70
2019-05-29T07:14:38.194Z,89.70
2019-05-29T07:17:06.399Z,89.40
2019-05-29T07:19:47.413Z,89.50
2019-05-29T07:22:03.905Z,89.70
2019-05-29T07:24:31.746Z,89.60
2019-05-29T07:26:59.594Z,89.40
2019-05-29T07:29:27.614Z,89.80
2019-05-29T07:31:55.328Z,90.40
2019-05-29T07:34:23.170Z,89.90
2019-05-29T07:36:51.006Z,89.30
2019-05-29T07:39:18.698Z,89.60
2019-05-29T07:41:47.744Z,89.70
2019-05-29T07:44:15.621Z,89.00
2019-05-29T07:46:45.349Z,89.20
2019-05-29T07:49:13.103Z,88.70
2019-05-29T07:51:43.117Z,88.80
2019-05-29T07:54:30.042Z,89.10
2019-05-29T07:56:57.674Z,88.70
2019-05-29T07:59:28.558Z,88.60
2019-05-29T08:01:55.120Z,88.80
2019-05-29T08:04:23.091Z,88.20
2019-05-29T08:06:54.416Z,87.90
2019-05-29T08:09:22.009Z,88.80
2019-05-29T08:11:50.161Z,88.40
2019-05-29T08:14:18.240Z,88.20
2019-05-29T08:16:46.244Z,88.30
2019-05-29T08:19:14.238Z,88.60
2019-05-29T08:21:42.670Z,88.60
2019-05-29T08:24:11.552Z,88.50
2019-05-29T08:26:40.723Z,87.80
2019-05-29T08:29:08.773Z,88.40
2019-05-29T08:31:36.871Z,87.30
2019-05-29T08:34:04.762Z,87.50
2019-05-29T08:36:32.750Z,86.50
2019-05-29T08:39:00.941Z,86.70
2019-05-29T08:41:29.017Z,86.10
2019-05-29T08:43:56.787Z,86.70
2019-05-29T08:46:24.748Z,86.00
2019-05-29T08:48:52.543Z,86.10
2019-05-29T08:51:20.945Z,86.50
2019-05-29T08:53:48.865Z,86.70
2019-05-29T08:56:36.638Z,86.50
2019-05-29T08:59:04.358Z,86.60
2019-05-29T09:01:32.125Z,85.80
2019-05-29T09:04:00.178Z,85.40
2019-05-29T09:06:28.098Z,85.50
2019-05-29T09:08:57.076Z,85.80
2019-05-29T09:11:24.728Z,84.40
2019-05-29T09:13:52.552Z,85.30
2019-05-29T09:16:20.524Z,84.30
2019-05-29T09:18:48.452Z,84.60
2019-05-29T09:21:17.459Z,84.40
2019-05-29T09:23:46.270Z,83.90
2019-05-29T09:26:19.816Z,84.90
2019-05-29T09:28:43.810Z,83.80
2019-05-29T09:31:11.613Z,83.80
2019-05-29T09:33:39.348Z,83.50
2019-05-29T09:36:07.160Z,83.80
2019-05-29T09:38:34.910Z,83.60
2019-05-29T09:41:02.853Z,82.80
2019-05-29T09:43:31.000Z,82.60
2019-05-29T09:46:02.131Z,82.20
2019-05-29T09:48:28.893Z,82.60
2019-05-29T09:50:57.954Z,82.90
2019-05-29T09:53:25.892Z,82.70
2019-05-29T09:55:55.673Z,82.60
2019-05-29T09:58:23.187Z,80.40
2019-05-29T10:01:09.565Z,80.80
2019-05-29T10:03:20.531Z,80.30
2019-05-29T10:05:48.234Z,79.80
2019-05-29T10:08:17.097Z,79.10
2019-05-29T10:10:45.288Z,78.60
2019-05-29T10:13:12.883Z,79.50
2019-05-29T10:15:40.894Z,78.50
2019-05-29T10:18:30.031Z,79.20
2019-05-29T10:20:39.201Z,79.50
2019-05-29T10:23:06.855Z,78.50
2019-05-29T10:25:34.521Z,78.40
2019-05-29T10:28:05.968Z,79.30
2019-05-29T10:30:32.451Z,77.90
2019-05-29T10:33:00.185Z,78.50
2019-05-29T10:35:27.921Z,76.90
2019-05-29T10:37:55.771Z,77.40
2019-05-29T10:40:23.973Z,77.30
2019-05-29T10:42:53.390Z,77.70
2019-05-29T10:45:21.450Z,75.70
2019-05-29T10:47:49.764Z,75.90
2019-05-29T10:50:18.479Z,76.40
2019-05-29T10:52:46.180Z,76.60
2019-05-29T10:55:18.972Z,75.60
2019-05-29T10:57:46.705Z,75.80
2019-05-29T11:00:16.231Z,75.30
2019-05-29T11:02:45.896Z,75.80
2019-05-29T11:05:14.175Z,76.90
2019-05-29T11:07:41.831Z,76.20
2019-05-29T11:10:13.290Z,76.40
2019-05-29T11:12:39.970Z,76.30
2019-05-29T11:15:20.818Z,76.00
2019-05-29T11:17:37.960Z,76.20
2019-05-29T11:20:08.326Z,76.70
2019-05-29T11:22:36.106Z,75.00
2019-05-29T11:25:21.426Z,76.40
2019-05-29T11:27:34.720Z,76.60
2019-05-29T11:30:02.892Z,77.20
2019-05-29T11:32:30.971Z,77.20
2019-05-29T11:34:59.923Z,77.70
2019-05-29T11:37:27.646Z,77.00
2019-05-29T11:39:55.326Z,76.80
2019-05-29T11:42:27.235Z,75.60
2019-05-29T11:44:53.458Z,74.90
2019-05-29T11:47:21.748Z,75.40
2019-05-29T11:49:49.430Z,76.30
2019-05-29T11:52:25.039Z,75.70
2019-05-29T11:54:55.991Z,75.70
2019-05-29T11:57:23.349Z,76.80
2019-05-29T11:59:51.864Z,77.30
2019-05-29T12:02:19.776Z,77.50
2019-05-29T12:04:47.725Z,77.60
2019-05-29T12:07:15.585Z,77.00
2019-05-29T12:09:43.591Z,76.50
2019-05-29T12:12:11.564Z,76.00
2019-05-29T12:14:59.162Z,75.80
2019-05-29T12:17:09.692Z,75.60
2019-05-29T12:19:37.783Z,76.80
2019-05-29T12:22:05.495Z,75.30
2019-05-29T12:24:33.268Z,74.10
2019-05-29T12:27:01.030Z,73.70
2019-05-29T12:29:28.899Z,74.10
2019-05-29T12:31:57.107Z,73.40
2019-05-29T12:34:25.007Z,72.90
2019-05-29T12:36:53.840Z,75.00
2019-05-29T12:39:21.567Z,73.70
2019-05-29T12:41:49.291Z,74.30
2019-05-29T12:44:16.894Z,73.40
2019-05-29T12:46:44.782Z,72.80
2019-05-29T12:49:15.680Z,72.90
2019-05-29T12:51:43.581Z,71.70
2019-05-29T12:54:11.299Z,73.10
2019-05-29T12:56:38.991Z,73.90
2019-05-29T12:59:06.977Z,74.60
2019-05-29T13:01:35.776Z,74.60
2019-05-29T13:04:04.759Z,73.80
2019-05-29T13:06:32.761Z,71.70
2019-05-29T13:09:00.568Z,71.90
2019-05-29T13:11:28.360Z,72.30
2019-05-29T13:13:59.192Z,73.70
2019-05-29T13:16:26.857Z,73.40
2019-05-29T13:18:54.913Z,74.20
2019-05-29T13:21:22.756Z,73.90
2019-05-29T13:23:50.572Z,74.70
2019-05-29T13:26:19.566Z,71.30
2019-05-29T13:28:47.354Z,70.70
2019-05-29T13:31:15.126Z,70.60
2019-05-29T13:33:42.924Z,71.60
2019-05-29T13:36:10.678Z,73.00
2019-05-29T13:38:38.822Z,74.40
2019-05-29T13:41:06.750Z,75.70
2019-05-29T13:43:34.616Z,76.70
2019-05-29T13:46:02.570Z,76.90
2019-05-29T13:48:30.308Z,77.70
2019-05-29T13:51:01.746Z,78.10
2019-05-29T13:53:30.025Z,78.10
2019-05-29T13:55:57.850Z,79.00
2019-05-29T13:58:25.861Z,78.30
2019-05-29T14:00:53.447Z,78.30
2019-05-29T14:03:21.163Z,78.40
2019-05-29T14:05:49.030Z,78.80
2019-05-29T14:08:16.773Z,80.10
2019-05-29T14:10:44.731Z,79.90
2019-05-29T14:13:12.705Z,80.90
2019-05-29T14:15:40.672Z,80.80
2019-05-29T14:18:09.018Z,82.60
2019-05-29T14:20:37.222Z,85.90
2019-05-29T14:23:05.377Z,86.10
2019-05-29T14:25:33.433Z,87.70
2019-05-29T14:28:02.508Z,88.10
2019-05-29T14:30:30.534Z,87.20
2019-05-29T14:32:58.309Z,86.50
2019-05-29T14:35:26.345Z,86.40
2019-05-29T14:37:53.968Z,86.40
2019-05-29T14:40:21.720Z,87.20
2019-05-29T14:42:49.634Z,86.90
2019-05-29T14:45:17.376Z,88.20
2019-05-29T14:48:05.753Z,87.90
2019-05-29T14:50:34.328Z,86.40
2019-05-29T14:53:02.922Z,86.60
2019-05-29T14:55:30.858Z,86.30
2019-05-29T14:58:00.193Z,84.20
2019-05-29T15:00:29.993Z,83.50
2019-05-29T15:02:57.906Z,82.00
2019-05-29T15:05:25.819Z,82.40
2019-05-29T15:07:53.480Z,82.30
2019-05-29T15:10:26.942Z,82.10
2019-05-29T15:12:51.266Z,79.70
2019-05-29T15:15:19.375Z,80.50
2019-05-29T15:17:47.089Z,78.10
2019-05-29T15:20:16.859Z,78.80
2019-05-29T15:22:45.021Z,79.20
2019-05-29T15:25:22.975Z,79.70
2019-05-29T15:27:43.916Z,78.20
2019-05-29T15:30:17.757Z,80.00
2019-05-29T15:32:41.850Z,79.90
2019-05-29T15:35:13.754Z,77.90
2019-05-29T15:37:39.876Z,77.80
2019-05-29T15:40:10.936Z,78.10
2019-05-29T15:42:38.971Z,76.60
2019-05-29T15:45:07.879Z,75.80
2019-05-29T15:47:35.538Z,76.40
2019-05-29T15:50:03.972Z,74.20
2019-05-29T15:52:31.744Z,74.60
2019-05-29T15:55:19.991Z,75.20
2019-05-29T15:57:32.320Z,74.30
2019-05-29T16:00:00.222Z,73.30
2019-05-29T16:02:28.112Z,76.50
2019-05-29T16:04:55.754Z,74.60
2019-05-29T16:07:23.794Z,74.50
2019-05-29T16:09:51.608Z,74.40
2019-05-29T16:12:19.410Z,74.70
2019-05-29T16:14:47.393Z,74.90
2019-05-29T16:17:15.271Z,74.00
2019-05-29T16:19:44.011Z,73.90
2019-05-29T16:22:12.238Z,75.70
2019-05-29T16:24:39.967Z,74.90
2019-05-29T16:27:09.046Z,75.10
2019-05-29T16:29:38.601Z,77.00
2019-05-29T16:32:06.402Z,76.50
2019-05-29T16:34:34.352Z,75.70
2019-05-29T16:37:02.079Z,75.70
2019-05-29T16:39:29.955Z,75.80
2019-05-29T16:41:57.782Z,76.20
2019-05-29T16:44:29.320Z,77.80
2019-05-29T16:46:55.212Z,76.70
2019-05-29T16:49:23.131Z,77.40
2019-05-29T16:51:50.855Z,77.00
2019-05-29T16:54:19.157Z,76.70
2019-05-29T16:56:46.934Z,77.20
2019-05-29T16:59:14.937Z,77.10
2019-05-29T17:01:42.682Z,76.70
2019-05-29T17:04:10.371Z,76.10
2019-05-29T17:06:38.026Z,76.40
2019-05-29T17:09:07.766Z,76.60
2019-05-29T17:11:35.500Z,76.70
2019-05-29T17:14:03.448Z,76.10
2019-05-29T17:16:31.143Z,76.10
2019-05-29T17:18:59.559Z,76.70
2019-05-29T17:21:27.245Z,75.30
2019-05-29T17:23:54.951Z,75.60
2019-05-29T17:26:23.096Z,75.00
2019-05-29T17:28:50.831Z,75.20
2019-05-29T17:31:18.943Z,75.20
2019-05-29T17:33:46.821Z,75.00
2019-05-29T17:36:14.922Z,75.90
2019-05-29T17:38:42.861Z,75.50
2019-05-29T17:41:10.569Z,75.70
2019-05-29T17:43:38.480Z,76.20
2019-05-29T17:46:06.618Z,75.30
2019-05-29T17:48:34.474Z,77.70
2019-05-29T17:51:02.254Z,78.00
2019-05-29T17:53:29.944Z,78.70
2019-05-29T17:55:57.764Z,78.90
2019-05-29T17:58:26.749Z,79.40
2019-05-29T18:00:54.525Z,78.90
2019-05-29T18:03:22.297Z,79.30
2019-05-29T18:05:50.022Z,79.50
2019-05-29T18:08:18.645Z,80.10
2019-05-29T18:10:46.407Z,79.50
2019-05-29T18:13:14.138Z,79.60
2019-05-29T18:15:41.869Z,79.80
2019-05-29T18:18:10.668Z,79.40
2019-05-29T18:20:38.399Z,79.50
2019-05-29T18:23:06.170Z,80.30
2019-05-29T18:25:33.825Z,81.00
2019-05-29T18:28:01.587Z,81.20
2019-05-29T18:30:29.311Z,81.20
2019-05-29T18:32:58.326Z,80.00
2019-05-29T18:35:27.063Z,79.40
2019-05-29T18:37:55.115Z,80.10
2019-05-29T18:40:24.212Z,80.80
2019-05-29T18:42:53.064Z,81.00
2019-05-29T18:45:24.213Z,79.90
2019-05-29T18:47:50.872Z,80.90
2019-05-29T18:50:18.782Z,81.40
2019-05-29T18:52:46.552Z,81.70
2019-05-29T18:55:14.483Z,80.70
2019-05-29T18:57:42.388Z,81.20
2019-05-29T19:00:11.085Z,80.80
2019-05-29T19:02:39.156Z,81.40
2019-05-29T19:05:07.008Z,81.10
2019-05-29T19:07:34.970Z,81.10
2019-05-29T19:10:06.208Z,81.50
2019-05-29T19:12:32.557Z,81.80
2019-05-29T19:15:00.268Z,82.50
2019-05-29T19:17:28.048Z,82.50
2019-05-29T19:19:55.783Z,82.80
2019-05-29T19:22:24.322Z,83.80
2019-05-29T19:24:52.105Z,85.20
2019-05-29T19:27:31.148Z,86.30
2019-05-29T19:29:49.524Z,86.80
2019-05-29T19:32:17.220Z,87.30
2019-05-29T19:34:45.218Z,87.80
2019-05-29T19:37:12.959Z,87.90
2019-05-29T19:39:40.882Z,88.30
2019-05-29T19:42:08.626Z,88.00
2019-05-29T19:44:36.468Z,88.10
2019-05-29T19:47:04.254Z,87.70
2019-05-29T19:49:32.988Z,88.00
2019-05-29T19:52:00.809Z,88.80
2019-05-29T19:54:29.437Z,88.80
2019-05-29T19:56:57.167Z,89.10
2019-05-29T19:59:25.863Z,89.10
2019-05-29T20:01:53.593Z,89.20
2019-05-29T20:04:21.304Z,89.30
2019-05-29T20:06:49.049Z,89.50
2019-05-29T20:09:16.860Z,89.40
2019-05-29T20:11:44.683Z,89.50
2019-05-29T20:14:12.307Z,89.50
2019-05-29T20:16:40.412Z,89.60
2019-05-29T20:19:08.036Z,89.10
2019-05-29T20:21:36.821Z,89.30
2019-05-29T20:24:04.614Z,89.40
2019-05-29T20:26:33.004Z,89.40
2019-05-29T20:29:00.759Z,89.40
2019-05-29T20:31:28.554Z,89.40
2019-05-29T20:33:56.217Z,89.10
2019-05-29T20:36:23.847Z,88.90
2019-05-29T20:38:51.585Z,89.30
2019-05-29T20:41:19.319Z,89.40
2019-05-29T20:43:47.114Z,89.50
2019-05-29T20:46:14.832Z,89.60
2019-05-29T20:48:43.003Z,89.20
2019-05-29T20:51:10.691Z,89.20
2019-05-29T20:53:40.119Z,89.10
2019-05-29T20:56:07.978Z,89.30
2019-05-29T20:58:35.671Z,89.20
2019-05-29T21:01:03.658Z,89.30
2019-05-29T21:03:32.228Z,89.30
2019-05-29T21:06:00.041Z,89.00
2019-05-29T21:08:27.695Z,89.10
2019-05-29T21:10:56.077Z,89.40
2019-05-29T21:13:23.763Z,89.10
2019-05-29T21:15:51.580Z,89.40
2019-05-29T21:18:19.123Z,89.30
2019-05-29T21:20:47.049Z,89.40
2019-05-29T21:23:14.710Z,89.50
2019-05-29T21:25:42.984Z,89.40
2019-05-29T21:28:10.586Z,89.50
2019-05-29T21:30:39.418Z,89.70
2019-05-29T21:33:07.140Z,89.90
2019-05-29T21:35:35.981Z,90.10
2019-05-29T21:38:04.092Z,90.10
2019-05-29T21:40:31.724Z,90.00
2019-05-29T21:42:59.438Z,90.10
2019-05-29T21:45:27.027Z,90.10
2019-05-29T21:47:54.785Z,90.10
2019-05-29T21:50:22.631Z,90.30
2019-05-29T21:52:50.369Z,90.50
2019-05-29T21:55:19.120Z,90.70
2019-05-29T21:57:48.729Z,90.90
2019-05-29T22:00:23.020Z,90.80
2019-05-29T22:02:52.663Z,91.10
2019-05-29T22:05:20.698Z,90.90
2019-05-29T22:07:48.955Z,90.60
2019-05-29T22:10:16.757Z,90.20
2019-05-29T22:12:44.554Z,90.10
2019-05-29T22:15:12.571Z,89.90
2019-05-29T22:17:40.470Z,90.00
2019-05-29T22:20:08.233Z,90.20
2019-05-29T22:22:36.053Z,90.10
2019-05-29T22:25:04.504Z,90.40
2019-05-29T22:27:32.135Z,90.70
2019-05-29T22:29:59.929Z,90.70
2019-05-29T22:32:28.045Z,90.80
2019-05-29T22:34:55.767Z,90.70
2019-05-29T22:37:23.461Z,90.70
2019-05-29T22:39:51.463Z,90.50
2019-05-29T22:42:20.301Z,90.40
2019-05-29T22:44:47.997Z,90.50
2019-05-29T22:47:15.782Z,90.60
2019-05-29T22:49:43.511Z,90.70
2019-05-29T22:52:11.093Z,90.70
2019-05-29T22:54:38.753Z,90.80
2019-05-29T22:57:06.362Z,91.00
2019-05-29T22:59:34.369Z,91.20
2019-05-29T23:02:02.569Z,91.10
2019-05-29T23:04:30.410Z,90.90
2019-05-29T23:06:58.371Z,91.10
2019-05-29T23:09:26.135Z,91.30
2019-05-29T23:11:54.181Z,91.20
2019-05-29T23:14:21.950Z,91.10
2019-05-29T23:16:49.659Z,91.30
2019-05-29T23:19:17.329Z,91.50
2019-05-29T23:21:44.951Z,91.40
2019-05-29T23:24:12.541Z,91.70
2019-05-29T23:26:40.213Z,91.60
2019-05-29T23:29:09.147Z,91.50
2019-05-29T23:31:36.786Z,91.10
2019-05-29T23:34:04.339Z,90.90
2019-05-29T23:36:32.078Z,90.90
2019-05-29T23:38:59.687Z,90.80
2019-05-29T23:41:27.656Z,90.80
2019-05-29T23:43:55.488Z,90.80
2019-05-29T23:46:23.209Z,90.90
2019-05-29T23:48:50.971Z,90.80
2019-05-29T23:51:18.733Z,90.80
2019-05-29T23:53:46.408Z,90.80
2019-05-29T23:56:13.978Z,90.90
2019-05-29T23:58:41.566Z,91.10
